Janet — 9HSL8 — position and weather

sailwx.info

Track history (hours):
 
Tides and Currents Weather Stations Pressure Air Temp Water Temp Dewpoint Dewpoint Depression Visibility Wind Speed Wind Dir Waves Ship Positions

Janet

Last reported at 2016-Aug-25 02:06 UTC. Time now 2016-Aug-26 12:02 UTC.
Position N 48°32' W 006°05'.

Length 90 m; draft 6.4 m.

Type: Cargo ship. MMSI: 256371000.

Date/timePositionNaut miles runAvg speedWind from/ knotsBaromVisibWave heightAir tempDewpointWater temp
2016-Aug-25 02:06N 48°32' W 006°05'1011.8
2016-Aug-25 01:16N 48°41' W 005°59'1111.5
2016-Aug-25 00:20N 48°51' W 005°53'810.3
2016-Aug-24 23:33N 48°56' W 005°43'1010.0
2016-Aug-24 22:31N 49°01' W 005°29'10 9.5
2016-Aug-24 21:29N 49°06' W 005°17'9 8.8
2016-Aug-24 20:26N 49°11' W 005°04'19 9.5
2016-Aug-24 18:26N 49°20' W 004°39'1010.4
2016-Aug-24 17:28N 49°25' W 004°26'2311.3
2016-Aug-24 15:27N 49°37' W 003°56'1011.4
2016-Aug-24 14:33N 49°42' W 003°42'1310.5
2016-Aug-24 13:21N 49°48' W 003°25'8 9.7
2016-Aug-24 12:33N 49°52' W 003°15'9 9.1
2016-Aug-24 11:33N 49°57' W 003°03'9 8.7
2016-Aug-24 10:28N 50°01' W 002°49'8 9.1
2016-Aug-24 09:33N 50°03' W 002°37'1010.0
2016-Aug-24 08:33N 50°05' W 002°22'1211.6
2016-Aug-24 07:32N 50°09' W 002°04'4413.4
2016-Aug-24 04:16N 50°20' W 000°58'811.6
2016-Aug-24 03:33N 50°23' W 000°45'1010.1
2016-Aug-24 02:34N 50°25' W 000°30'9 9.2
2016-Aug-24 01:33N 50°28' W 000°16'8 8.5
2016-Aug-24 00:34N 50°30' W 000°03'8 8.3
2016-Aug-23 23:33N 50°32' E 000°09'9 9.1
2016-Aug-23 22:33N 50°35' E 000°23'3411.2
2016-Aug-23 19:33N 50°54' E 001°07'1110.7
2016-Aug-23 18:33N 51°00' E 001°21'9 9.3
2016-Aug-23 17:33N 51°06' E 001°32'8 7.9
2016-Aug-23 16:34N 51°11' E 001°42'8 8.1
2016-Aug-23 15:33N 51°18' E 001°49'9 9.5
2016-Aug-23 14:33N 51°26' E 001°56'1111.0
2016-Aug-23 13:34N 51°34' E 002°08'2512.3
2016-Aug-23 11:33N 51°53' E 002°35'1212.3
2016-Aug-23 10:33N 52°01' E 002°49'1111.2
2016-Aug-23 09:33N 52°03' E 003°07'1110.7
2016-Aug-23 08:33N 52°03' E 003°24'1010.4
2016-Aug-23 07:33N 52°03' E 003°41'9 9.3
2016-Aug-23 06:33N 52°02' E 003°56'9 9.3
2016-Aug-23 05:33N 51°58' E 004°09'7 7.0
2016-Aug-23 04:34N 51°54' E 004°19'2 1.7
2016-Aug-23 03:33N 51°54' E 004°21'0 0.0
2016-Aug-23 02:30N 51°54' E 004°21'0 0.0
2016-Aug-23 01:32N 51°54' E 004°21'0 0.0
2016-Aug-23 00:30N 51°54' E 004°21'0 0.0
2016-Aug-22 23:32N 51°54' E 004°21'0 0.0
2016-Aug-22 22:30N 51°54' E 004°21'0 0.0
2016-Aug-22 21:29N 51°54' E 004°21'0 0.0
2016-Aug-22 20:33N 51°54' E 004°21'0 0.0
2016-Aug-22 19:32N 51°54' E 004°21'0 0.0
2016-Aug-22 18:33N 51°54' E 004°21'0 0.0
2016-Aug-22 17:33N 51°54' E 004°21'0 0.0
2016-Aug-22 16:33N 51°54' E 004°21'0 0.0
2016-Aug-22 15:33N 51°54' E 004°21'0 0.0
2016-Aug-22 14:24N 51°54' E 004°21'0 0.0
2016-Aug-22 13:33N 51°54' E 004°21'0 0.0
2016-Aug-22 12:30N 51°54' E 004°21'0 0.0
2016-Aug-22 11:33N 51°54' E 004°21'0 0.0
2016-Aug-22 10:32N 51°54' E 004°21'0 0.0
2016-Aug-22 09:29N 51°54' E 004°21'0 0.0
2016-Aug-22 08:33N 51°54' E 004°21'0 0.0
2016-Aug-22 07:32N 51°54' E 004°21'0 0.0
2016-Aug-22 06:29N 51°54' E 004°21'0 0.0
2016-Aug-22 05:32N 51°54' E 004°21'0 0.0
2016-Aug-22 04:32N 51°54' E 004°21'0 0.0
2016-Aug-22 03:32N 51°54' E 004°21'0 0.0
2016-Aug-22 02:33N 51°54' E 004°21'0 0.0
2016-Aug-22 01:30N 51°54' E 004°21'0 0.0
2016-Aug-22 00:29N 51°54' E 004°21'0 0.0
2016-Aug-21 23:33N 51°54' E 004°21'0 0.0
2016-Aug-21 22:33N 51°54' E 004°21'0 0.0
2016-Aug-21 21:33N 51°54' E 004°21'0 0.0
2016-Aug-21 20:33N 51°54' E 004°21'0 0.0
2016-Aug-21 19:29N 51°54' E 004°21'0 0.0
2016-Aug-21 18:33N 51°54' E 004°21'0 0.0
2016-Aug-21 17:33N 51°54' E 004°21'0 0.0
2016-Aug-21 16:33N 51°54' E 004°21'0 0.0
2016-Aug-21 15:26N 51°54' E 004°21'0 0.0
2016-Aug-21 14:32N 51°54' E 004°21'0 0.0
2016-Aug-21 13:27N 51°54' E 004°21'0 0.0
2016-Aug-21 12:33N 51°54' E 004°21'2 2.5
2016-Aug-21 11:34N 51°54' E 004°17'9 9.0
2016-Aug-21 10:34N 51°59' E 004°06'3 2.7
2016-Aug-21 09:34N 51°57' E 004°09'0 0.0
2016-Aug-21 08:31N 51°57' E 004°09'0 0.0
2016-Aug-21 07:28N 51°57' E 004°09'0 0.0
2016-Aug-21 06:34N 51°57' E 004°09'0 0.0
2016-Aug-21 05:31N 51°57' E 004°09'0 0.0
2016-Aug-21 04:28N 51°57' E 004°09'0 0.0
2016-Aug-21 03:31N 51°57' E 004°09'0 0.0
2016-Aug-21 02:31N 51°57' E 004°09'0 0.0
2016-Aug-21 01:34N 51°57' E 004°09'0 0.0
2016-Aug-21 00:31N 51°57' E 004°09'0 0.0
2016-Aug-20 23:31N 51°57' E 004°09'0 0.0
2016-Aug-20 22:34N 51°57' E 004°09'0 0.0
2016-Aug-20 21:34N 51°57' E 004°09'0 0.0
2016-Aug-20 20:31N 51°57' E 004°09'0 0.0
2016-Aug-20 19:31N 51°57' E 004°09'0 0.0
2016-Aug-20 18:31N 51°57' E 004°09'0 0.0
2016-Aug-20 17:34N 51°57' E 004°09'0 0.0
2016-Aug-20 16:31N 51°57' E 004°09'0 0.0
2016-Aug-20 15:31N 51°57' E 004°09'0 0.0
2016-Aug-20 14:31N 51°57' E 004°09'0 0.0
2016-Aug-20 13:31N 51°57' E 004°09'0 0.0
2016-Aug-20 12:31N 51°57' E 004°09'0 0.0
2016-Aug-20 11:31N 51°57' E 004°09'0 0.0
2016-Aug-20 10:31N 51°57' E 004°09'0 0.0
2016-Aug-20 09:31N 51°57' E 004°09'0 0.0
2016-Aug-20 08:34N 51°57' E 004°09'0 0.0
2016-Aug-20 07:34N 51°57' E 004°09'0 0.0
2016-Aug-20 06:31N 51°57' E 004°09'0 0.0
2016-Aug-20 05:31N 51°57' E 004°09'0 0.0
2016-Aug-20 04:31N 51°57' E 004°09'0 0.0
2016-Aug-20 03:34N 51°57' E 004°09'0 0.0
2016-Aug-20 02:31N 51°57' E 004°09'0 0.0
2016-Aug-20 01:34N 51°57' E 004°09'0 0.0
2016-Aug-20 00:31N 51°57' E 004°09'0 0.0
2016-Aug-19 23:31N 51°57' E 004°09'0 0.0
2016-Aug-19 22:34N 51°57' E 004°09'0 0.0
2016-Aug-19 21:34N 51°57' E 004°09'0 0.0
2016-Aug-19 20:34N 51°57' E 004°09'0 0.0
2016-Aug-19 19:34N 51°57' E 004°09'0 0.0
2016-Aug-19 18:28N 51°57' E 004°09'0 0.0
2016-Aug-19 17:31N 51°57' E 004°09'0 0.0
2016-Aug-19 16:34N 51°57' E 004°09'0 0.0
2016-Aug-19 15:34N 51°57' E 004°09'0 0.0
2016-Aug-19 14:31N 51°57' E 004°09'0 0.0
2016-Aug-19 13:34N 51°57' E 004°09'0 0.0
2016-Aug-19 12:22N 51°57' E 004°09'0 0.0
2016-Aug-19 11:31N 51°57' E 004°09'0 0.0
2016-Aug-19 10:31N 51°57' E 004°09'0 0.0
2016-Aug-19 09:34N 51°57' E 004°09'0 0.0
2016-Aug-19 08:31N 51°57' E 004°09'0 0.0
2016-Aug-19 07:31N 51°57' E 004°09'0 0.0
2016-Aug-19 06:31N 51°57' E 004°09'0 0.0
2016-Aug-19 05:31N 51°57' E 004°09'0 0.0
2016-Aug-19 04:31N 51°57' E 004°09'0 0.0
2016-Aug-19 03:28N 51°57' E 004°09'0 0.0
2016-Aug-19 02:31N 51°57' E 004°09'0 0.0
2016-Aug-19 01:31N 51°57' E 004°09'0 0.0
2016-Aug-19 00:31N 51°57' E 004°09'0 0.0
2016-Aug-18 23:34N 51°57' E 004°09'0 0.0
2016-Aug-18 22:34N 51°57' E 004°09'0 0.0
2016-Aug-18 21:31N 51°57' E 004°09'0 0.0
2016-Aug-18 20:34N 51°57' E 004°09'0 0.0
2016-Aug-18 19:34N 51°57' E 004°09'0 0.0
2016-Aug-18 18:34N 51°57' E 004°09'0 0.0
2016-Aug-18 17:31N 51°57' E 004°09'0 0.0
2016-Aug-18 16:31N 51°57' E 004°09'0 0.0
2016-Aug-18 15:31N 51°57' E 004°09'0 0.0
2016-Aug-18 14:31N 51°57' E 004°09'0 0.0
2016-Aug-18 13:31N 51°57' E 004°09'0 0.0
2016-Aug-18 12:28N 51°57' E 004°09'0 0.0
2016-Aug-18 11:34N 51°57' E 004°09'0 0.0
2016-Aug-18 10:34N 51°57' E 004°09'0 0.0
2016-Aug-18 09:31N 51°57' E 004°09'0 0.0
2016-Aug-18 08:31N 51°57' E 004°09'0 0.1
2016-Aug-18 07:34N 51°57' E 004°09'0 0.0
2016-Aug-18 06:34N 51°57' E 004°09'0 0.0
2016-Aug-18 05:33N 51°57' E 004°09'8 8.3
2016-Aug-18 04:33N 52°00' E 003°56'1110.5
2016-Aug-18 03:33N 51°58' E 003°40'9 8.6
2016-Aug-18 02:31N 51°56' E 003°26'13 9.0
2016-Aug-18 01:07N 51°52' E 003°06'5 8.8
2016-Aug-18 00:33N 51°51' E 002°59'9 9.2
2016-Aug-17 23:33N 51°48' E 002°44'9 9.6
2016-Aug-17 22:33N 51°42' E 002°32'10 9.5
2016-Aug-17 21:33N 51°35' E 002°22'10 9.6
2016-Aug-17 20:33N 51°28' E 002°12'9 9.2
2016-Aug-17 19:33N 51°19' E 002°06'8 7.6
2016-Aug-17 18:33N 51°13' E 002°00'7 7.3
2016-Aug-17 17:33N 51°09' E 001°50'7 7.5
2016-Aug-17 16:33N 51°04' E 001°41'8 8.2
2016-Aug-17 15:33N 50°58' E 001°33'9 8.8
2016-Aug-17 14:33N 50°50' E 001°25'9 9.0
2016-Aug-17 13:32N 50°42' E 001°20'9 9.4
2016-Aug-17 12:32N 50°36' E 001°09'20 9.1
2016-Aug-17 10:20N 50°26' E 000°41'810.2
2016-Aug-17 09:31N 50°24' E 000°28'1010.8
2016-Aug-17 08:33N 50°22' E 000°12'1111.1
2016-Aug-17 07:33N 50°19' W 000°04'1111.2
2016-Aug-17 06:33N 50°15' W 000°21'1211.5
2016-Aug-17 05:33N 50°12' W 000°39'1211.0
2016-Aug-17 04:29N 50°09' W 000°56'9 9.6
2016-Aug-17 03:33N 50°07' W 001°10'8 8.3
2016-Aug-17 02:33N 50°05' W 001°22'7 7.2
2016-Aug-17 01:33N 50°03' W 001°33'7 6.6
2016-Aug-17 00:33N 50°01' W 001°43'7 6.8
2016-Aug-16 23:33N 49°59' W 001°53'8 8.1
2016-Aug-16 22:33N 49°57' W 002°05'10 9.6
2016-Aug-16 21:33N 49°55' W 002°20'1110.9
2016-Aug-16 20:33N 49°53' W 002°36'1211.7
2016-Aug-16 19:33N 49°50' W 002°54'1211.6
2016-Aug-16 18:33N 49°49' W 003°12'1111.4
2016-Aug-16 17:33N 49°50' W 003°30'1111.5
2016-Aug-16 16:33N 49°51' W 003°47'1111.2
2016-Aug-16 15:33N 49°51' W 004°05'1110.8
2016-Aug-16 14:32N 49°52' W 004°22'1010.1
2016-Aug-16 13:33N 49°52' W 004°37'1010.0
2016-Aug-16 12:31N 49°53' W 004°53'12 9.6
2016-Aug-16 11:19N 49°53' W 005°11'7 8.7
2016-Aug-16 10:32N 49°54' W 005°22'9 9.1
2016-Aug-16 09:31N 49°54' W 005°36'9 9.2
2016-Aug-16 08:33N 49°54' W 005°50'8 8.1
2016-Aug-16 07:33N 49°56' W 006°02'30 9.9
2016-Aug-16 04:33N 50°25' W 005°52'1010.1
2016-Aug-16 03:33N 50°32' W 005°40'10 9.7
2016-Aug-16 02:33N 50°38' W 005°29'10 9.8
2016-Aug-16 01:33N 50°44' W 005°16'1010.1
2016-Aug-16 00:33N 50°50' W 005°04'1010.3
2016-Aug-15 23:33N 50°56' W 004°51'1110.7
2016-Aug-15 22:33N 51°04' W 004°39'1211.6
2016-Aug-15 21:33N 51°12' W 004°26'1212.2
2016-Aug-15 20:32N 51°17' W 004°08'1413.8
2016-Aug-15 19:33N 51°20' W 003°47'2712.6
2016-Aug-15 17:23N 51°28' W 003°05'7 7.2
2016-Aug-15 16:26N 51°34' W 002°58'0 0.0
2016-Aug-15 15:08N 51°34' W 002°58'0 0.0
2016-Aug-15 14:29N 51°34' W 002°58'0 0.0
2016-Aug-15 11:08N 51°34' W 002°58'0 0.0
2016-Aug-15 10:32N 51°34' W 002°58'0 0.0
2016-Aug-15 09:32N 51°34' W 002°58'0 0.0
2016-Aug-15 08:32N 51°34' W 002°58'0 0.0
2016-Aug-15 07:32N 51°34' W 002°58'0 0.0
2016-Aug-15 06:32N 51°34' W 002°58'0 0.0
2016-Aug-15 04:32N 51°34' W 002°58'2 1.5
2016-Aug-15 03:32N 51°32' W 002°59'10 9.9
2016-Aug-15 02:31N 51°24' W 003°07'  
Track history (hours):
 
Tides and Currents Weather Stations Pressure Air Temp Water Temp Dewpoint Dewpoint Depression Visibility Wind Speed Wind Dir Waves Ship Positions

Janet

Last reported at 2016-Aug-25 02:06 UTC. Time now 2016-Aug-26 12:02 UTC.
Position N 48°32' W 006°05'.

Length 90 m; draft 6.4 m.

Type: Cargo ship. MMSI: 256371000.

Date/timePositionNaut miles runAvg speedWind from/ knotsBaromVisibWave heightAir tempDewpointWater temp
2016-Aug-25 02:06N 48°32' W 006°05'1011.8
2016-Aug-25 01:16N 48°41' W 005°59'1111.5
2016-Aug-25 00:20N 48°51' W 005°53'810.3
2016-Aug-24 23:33N 48°56' W 005°43'1010.0
2016-Aug-24 22:31N 49°01' W 005°29'10 9.5
2016-Aug-24 21:29N 49°06' W 005°17'9 8.8
2016-Aug-24 20:26N 49°11' W 005°04'19 9.5
2016-Aug-24 18:26N 49°20' W 004°39'1010.4
2016-Aug-24 17:28N 49°25' W 004°26'2311.3
2016-Aug-24 15:27N 49°37' W 003°56'1011.4
2016-Aug-24 14:33N 49°42' W 003°42'1310.5
2016-Aug-24 13:21N 49°48' W 003°25'8 9.7
2016-Aug-24 12:33N 49°52' W 003°15'9 9.1
2016-Aug-24 11:33N 49°57' W 003°03'9 8.7
2016-Aug-24 10:28N 50°01' W 002°49'8 9.1
2016-Aug-24 09:33N 50°03' W 002°37'1010.0
2016-Aug-24 08:33N 50°05' W 002°22'1211.6
2016-Aug-24 07:32N 50°09' W 002°04'4413.4
2016-Aug-24 04:16N 50°20' W 000°58'811.6
2016-Aug-24 03:33N 50°23' W 000°45'1010.1
2016-Aug-24 02:34N 50°25' W 000°30'9 9.2
2016-Aug-24 01:33N 50°28' W 000°16'8 8.5
2016-Aug-24 00:34N 50°30' W 000°03'8 8.3
2016-Aug-23 23:33N 50°32' E 000°09'9 9.1
2016-Aug-23 22:33N 50°35' E 000°23'3411.2
2016-Aug-23 19:33N 50°54' E 001°07'1110.7
2016-Aug-23 18:33N 51°00' E 001°21'9 9.3
2016-Aug-23 17:33N 51°06' E 001°32'8 7.9
2016-Aug-23 16:34N 51°11' E 001°42'8 8.1
2016-Aug-23 15:33N 51°18' E 001°49'9 9.5
2016-Aug-23 14:33N 51°26' E 001°56'1111.0
2016-Aug-23 13:34N 51°34' E 002°08'2512.3
2016-Aug-23 11:33N 51°53' E 002°35'1212.3
2016-Aug-23 10:33N 52°01' E 002°49'1111.2
2016-Aug-23 09:33N 52°03' E 003°07'1110.7
2016-Aug-23 08:33N 52°03' E 003°24'1010.4
2016-Aug-23 07:33N 52°03' E 003°41'9 9.3
2016-Aug-23 06:33N 52°02' E 003°56'9 9.3
2016-Aug-23 05:33N 51°58' E 004°09'7 7.0
2016-Aug-23 04:34N 51°54' E 004°19'2 1.7
2016-Aug-23 03:33N 51°54' E 004°21'0 0.0
2016-Aug-23 02:30N 51°54' E 004°21'0 0.0
2016-Aug-23 01:32N 51°54' E 004°21'0 0.0
2016-Aug-23 00:30N 51°54' E 004°21'0 0.0
2016-Aug-22 23:32N 51°54' E 004°21'0 0.0
2016-Aug-22 22:30N 51°54' E 004°21'0 0.0
2016-Aug-22 21:29N 51°54' E 004°21'0 0.0
2016-Aug-22 20:33N 51°54' E 004°21'0 0.0
2016-Aug-22 19:32N 51°54' E 004°21'0 0.0
2016-Aug-22 18:33N 51°54' E 004°21'0 0.0
2016-Aug-22 17:33N 51°54' E 004°21'0 0.0
2016-Aug-22 16:33N 51°54' E 004°21'0 0.0
2016-Aug-22 15:33N 51°54' E 004°21'0 0.0
2016-Aug-22 14:24N 51°54' E 004°21'0 0.0
2016-Aug-22 13:33N 51°54' E 004°21'0 0.0
2016-Aug-22 12:30N 51°54' E 004°21'0 0.0
2016-Aug-22 11:33N 51°54' E 004°21'0 0.0
2016-Aug-22 10:32N 51°54' E 004°21'0 0.0
2016-Aug-22 09:29N 51°54' E 004°21'0 0.0
2016-Aug-22 08:33N 51°54' E 004°21'0 0.0
2016-Aug-22 07:32N 51°54' E 004°21'0 0.0
2016-Aug-22 06:29N 51°54' E 004°21'0 0.0
2016-Aug-22 05:32N 51°54' E 004°21'0 0.0
2016-Aug-22 04:32N 51°54' E 004°21'0 0.0
2016-Aug-22 03:32N 51°54' E 004°21'0 0.0
2016-Aug-22 02:33N 51°54' E 004°21'0 0.0
2016-Aug-22 01:30N 51°54' E 004°21'0 0.0
2016-Aug-22 00:29N 51°54' E 004°21'0 0.0
2016-Aug-21 23:33N 51°54' E 004°21'0 0.0
2016-Aug-21 22:33N 51°54' E 004°21'0 0.0
2016-Aug-21 21:33N 51°54' E 004°21'0 0.0
2016-Aug-21 20:33N 51°54' E 004°21'0 0.0
2016-Aug-21 19:29N 51°54' E 004°21'0 0.0
2016-Aug-21 18:33N 51°54' E 004°21'0 0.0
2016-Aug-21 17:33N 51°54' E 004°21'0 0.0
2016-Aug-21 16:33N 51°54' E 004°21'0 0.0
2016-Aug-21 15:26N 51°54' E 004°21'0 0.0
2016-Aug-21 14:32N 51°54' E 004°21'0 0.0
2016-Aug-21 13:27N 51°54' E 004°21'0 0.0
2016-Aug-21 12:33N 51°54' E 004°21'2 2.5
2016-Aug-21 11:34N 51°54' E 004°17'9 9.0
2016-Aug-21 10:34N 51°59' E 004°06'3 2.7
2016-Aug-21 09:34N 51°57' E 004°09'0 0.0
2016-Aug-21 08:31N 51°57' E 004°09'0 0.0
2016-Aug-21 07:28N 51°57' E 004°09'0 0.0
2016-Aug-21 06:34N 51°57' E 004°09'0 0.0
2016-Aug-21 05:31N 51°57' E 004°09'0 0.0
2016-Aug-21 04:28N 51°57' E 004°09'0 0.0
2016-Aug-21 03:31N 51°57' E 004°09'0 0.0
2016-Aug-21 02:31N 51°57' E 004°09'0 0.0
2016-Aug-21 01:34N 51°57' E 004°09'0 0.0
2016-Aug-21 00:31N 51°57' E 004°09'0 0.0
2016-Aug-20 23:31N 51°57' E 004°09'0 0.0
2016-Aug-20 22:34N 51°57' E 004°09'0 0.0
2016-Aug-20 21:34N 51°57' E 004°09'0 0.0
2016-Aug-20 20:31N 51°57' E 004°09'0 0.0
2016-Aug-20 19:31N 51°57' E 004°09'0 0.0
2016-Aug-20 18:31N 51°57' E 004°09'0 0.0
2016-Aug-20 17:34N 51°57' E 004°09'0 0.0
2016-Aug-20 16:31N 51°57' E 004°09'0 0.0
2016-Aug-20 15:31N 51°57' E 004°09'0 0.0
2016-Aug-20 14:31N 51°57' E 004°09'0 0.0
2016-Aug-20 13:31N 51°57' E 004°09'0 0.0
2016-Aug-20 12:31N 51°57' E 004°09'0 0.0
2016-Aug-20 11:31N 51°57' E 004°09'0 0.0
2016-Aug-20 10:31N 51°57' E 004°09'0 0.0
2016-Aug-20 09:31N 51°57' E 004°09'0 0.0
2016-Aug-20 08:34N 51°57' E 004°09'0 0.0
2016-Aug-20 07:34N 51°57' E 004°09'0 0.0
2016-Aug-20 06:31N 51°57' E 004°09'0 0.0
2016-Aug-20 05:31N 51°57' E 004°09'0 0.0
2016-Aug-20 04:31N 51°57' E 004°09'0 0.0
2016-Aug-20 03:34N 51°57' E 004°09'0 0.0
2016-Aug-20 02:31N 51°57' E 004°09'0 0.0
2016-Aug-20 01:34N 51°57' E 004°09'0 0.0
2016-Aug-20 00:31N 51°57' E 004°09'0 0.0
2016-Aug-19 23:31N 51°57' E 004°09'0 0.0
2016-Aug-19 22:34N 51°57' E 004°09'0 0.0
2016-Aug-19 21:34N 51°57' E 004°09'0 0.0
2016-Aug-19 20:34N 51°57' E 004°09'0 0.0
2016-Aug-19 19:34N 51°57' E 004°09'0 0.0
2016-Aug-19 18:28N 51°57' E 004°09'0 0.0
2016-Aug-19 17:31N 51°57' E 004°09'0 0.0
2016-Aug-19 16:34N 51°57' E 004°09'0 0.0
2016-Aug-19 15:34N 51°57' E 004°09'0 0.0
2016-Aug-19 14:31N 51°57' E 004°09'0 0.0
2016-Aug-19 13:34N 51°57' E 004°09'0 0.0
2016-Aug-19 12:22N 51°57' E 004°09'0 0.0
2016-Aug-19 11:31N 51°57' E 004°09'0 0.0
2016-Aug-19 10:31N 51°57' E 004°09'0 0.0
2016-Aug-19 09:34N 51°57' E 004°09'0 0.0
2016-Aug-19 08:31N 51°57' E 004°09'0 0.0
2016-Aug-19 07:31N 51°57' E 004°09'0 0.0
2016-Aug-19 06:31N 51°57' E 004°09'0 0.0
2016-Aug-19 05:31N 51°57' E 004°09'0 0.0
2016-Aug-19 04:31N 51°57' E 004°09'0 0.0
2016-Aug-19 03:28N 51°57' E 004°09'0 0.0
2016-Aug-19 02:31N 51°57' E 004°09'0 0.0
2016-Aug-19 01:31N 51°57' E 004°09'0 0.0
2016-Aug-19 00:31N 51°57' E 004°09'0 0.0
2016-Aug-18 23:34N 51°57' E 004°09'0 0.0
2016-Aug-18 22:34N 51°57' E 004°09'0 0.0
2016-Aug-18 21:31N 51°57' E 004°09'0 0.0
2016-Aug-18 20:34N 51°57' E 004°09'0 0.0
2016-Aug-18 19:34N 51°57' E 004°09'0 0.0
2016-Aug-18 18:34N 51°57' E 004°09'0 0.0
2016-Aug-18 17:31N 51°57' E 004°09'0 0.0
2016-Aug-18 16:31N 51°57' E 004°09'0 0.0
2016-Aug-18 15:31N 51°57' E 004°09'0 0.0
2016-Aug-18 14:31N 51°57' E 004°09'0 0.0
2016-Aug-18 13:31N 51°57' E 004°09'0 0.0
2016-Aug-18 12:28N 51°57' E 004°09'0 0.0
2016-Aug-18 11:34N 51°57' E 004°09'0 0.0
2016-Aug-18 10:34N 51°57' E 004°09'0 0.0
2016-Aug-18 09:31N 51°57' E 004°09'0 0.0
2016-Aug-18 08:31N 51°57' E 004°09'0 0.1
2016-Aug-18 07:34N 51°57' E 004°09'0 0.0
2016-Aug-18 06:34N 51°57' E 004°09'0 0.0
2016-Aug-18 05:33N 51°57' E 004°09'8 8.3
2016-Aug-18 04:33N 52°00' E 003°56'1110.5
2016-Aug-18 03:33N 51°58' E 003°40'9 8.6
2016-Aug-18 02:31N 51°56' E 003°26'13 9.0
2016-Aug-18 01:07N 51°52' E 003°06'5 8.8
2016-Aug-18 00:33N 51°51' E 002°59'9 9.2
2016-Aug-17 23:33N 51°48' E 002°44'9 9.6
2016-Aug-17 22:33N 51°42' E 002°32'10 9.5
2016-Aug-17 21:33N 51°35' E 002°22'10 9.6
2016-Aug-17 20:33N 51°28' E 002°12'9 9.2
2016-Aug-17 19:33N 51°19' E 002°06'8 7.6
2016-Aug-17 18:33N 51°13' E 002°00'7 7.3
2016-Aug-17 17:33N 51°09' E 001°50'7 7.5
2016-Aug-17 16:33N 51°04' E 001°41'8 8.2
2016-Aug-17 15:33N 50°58' E 001°33'9 8.8
2016-Aug-17 14:33N 50°50' E 001°25'9 9.0
2016-Aug-17 13:32N 50°42' E 001°20'9 9.4
2016-Aug-17 12:32N 50°36' E 001°09'20 9.1
2016-Aug-17 10:20N 50°26' E 000°41'810.2
2016-Aug-17 09:31N 50°24' E 000°28'1010.8
2016-Aug-17 08:33N 50°22' E 000°12'1111.1
2016-Aug-17 07:33N 50°19' W 000°04'1111.2
2016-Aug-17 06:33N 50°15' W 000°21'1211.5
2016-Aug-17 05:33N 50°12' W 000°39'1211.0
2016-Aug-17 04:29N 50°09' W 000°56'9 9.6
2016-Aug-17 03:33N 50°07' W 001°10'8 8.3
2016-Aug-17 02:33N 50°05' W 001°22'7 7.2
2016-Aug-17 01:33N 50°03' W 001°33'7 6.6
2016-Aug-17 00:33N 50°01' W 001°43'7 6.8
2016-Aug-16 23:33N 49°59' W 001°53'8 8.1
2016-Aug-16 22:33N 49°57' W 002°05'10 9.6
2016-Aug-16 21:33N 49°55' W 002°20'1110.9
2016-Aug-16 20:33N 49°53' W 002°36'1211.7
2016-Aug-16 19:33N 49°50' W 002°54'1211.6
2016-Aug-16 18:33N 49°49' W 003°12'1111.4
2016-Aug-16 17:33N 49°50' W 003°30'1111.5
2016-Aug-16 16:33N 49°51' W 003°47'1111.2
2016-Aug-16 15:33N 49°51' W 004°05'1110.8
2016-Aug-16 14:32N 49°52' W 004°22'1010.1
2016-Aug-16 13:33N 49°52' W 004°37'1010.0
2016-Aug-16 12:31N 49°53' W 004°53'12 9.6
2016-Aug-16 11:19N 49°53' W 005°11'7 8.7
2016-Aug-16 10:32N 49°54' W 005°22'9 9.1
2016-Aug-16 09:31N 49°54' W 005°36'9 9.2
2016-Aug-16 08:33N 49°54' W 005°50'8 8.1
2016-Aug-16 07:33N 49°56' W 006°02'30 9.9
2016-Aug-16 04:33N 50°25' W 005°52'1010.1
2016-Aug-16 03:33N 50°32' W 005°40'10 9.7
2016-Aug-16 02:33N 50°38' W 005°29'10 9.8
2016-Aug-16 01:33N 50°44' W 005°16'1010.1
2016-Aug-16 00:33N 50°50' W 005°04'1010.3
2016-Aug-15 23:33N 50°56' W 004°51'1110.7
2016-Aug-15 22:33N 51°04' W 004°39'1211.6
2016-Aug-15 21:33N 51°12' W 004°26'1212.2
2016-Aug-15 20:32N 51°17' W 004°08'1413.8
2016-Aug-15 19:33N 51°20' W 003°47'2712.6
2016-Aug-15 17:23N 51°28' W 003°05'7 7.2
2016-Aug-15 16:26N 51°34' W 002°58'0 0.0
2016-Aug-15 15:08N 51°34' W 002°58'0 0.0
2016-Aug-15 14:29N 51°34' W 002°58'0 0.0
2016-Aug-15 11:08N 51°34' W 002°58'0 0.0
2016-Aug-15 10:32N 51°34' W 002°58'0 0.0
2016-Aug-15 09:32N 51°34' W 002°58'0 0.0
2016-Aug-15 08:32N 51°34' W 002°58'0 0.0
2016-Aug-15 07:32N 51°34' W 002°58'0 0.0
2016-Aug-15 06:32N 51°34' W 002°58'0 0.0
2016-Aug-15 04:32N 51°34' W 002°58'2 1.5
2016-Aug-15 03:32N 51°32' W 002°59'10 9.9
2016-Aug-15 02:31N 51°24' W 003°07'  

Dump ship's entire track history